createdAt,value
2023-02-12T00:02:23.761Z,15.10
2023-02-12T00:07:21.013Z,14.77
2023-02-12T00:12:18.264Z,14.80
2023-02-12T00:17:15.839Z,16.02
2023-02-12T00:22:13.435Z,13.38
2023-02-12T00:27:10.763Z,12.98
2023-02-12T00:32:08.002Z,13.73
2023-02-12T00:37:05.403Z,12.80
2023-02-12T00:42:02.613Z,12.50
2023-02-12T00:47:02.532Z,13.23
2023-02-12T00:56:58.043Z,12.70
2023-02-12T01:01:56.489Z,11.77
2023-02-12T01:06:54.209Z,11.70
2023-02-12T01:11:51.627Z,12.30
2023-02-12T01:16:49.330Z,12.35
2023-02-12T01:21:46.611Z,12.00
2023-02-12T01:26:43.964Z,13.52
2023-02-12T01:31:42.653Z,13.02
2023-02-12T01:36:40.243Z,12.75
2023-02-12T01:41:41.049Z,12.65
2023-02-12T01:46:39.353Z,12.02
2023-02-12T01:51:37.145Z,12.13
2023-02-12T01:56:35.504Z,12.65
2023-02-12T02:01:34.097Z,12.10
2023-02-12T02:06:54.140Z,12.52
2023-02-12T02:12:10.265Z,11.50
2023-02-12T02:17:28.798Z,13.10
2023-02-12T02:22:41.282Z,12.70
2023-02-12T02:28:08.049Z,11.65
2023-02-12T02:33:38.973Z,13.23
2023-02-12T02:38:46.172Z,12.48
2023-02-12T02:43:48.419Z,12.48
2023-02-12T02:48:57.101Z,12.07
2023-02-12T02:54:23.415Z,11.57
2023-02-12T02:59:29.308Z,11.25
2023-02-12T03:04:44.288Z,11.68
2023-02-12T03:09:47.223Z,10.55
2023-02-12T03:14:54.477Z,12.30
2023-02-12T03:19:58.359Z,11.73
2023-02-12T03:25:09.778Z,13.07
2023-02-12T03:30:14.726Z,13.35
2023-02-12T03:35:18.549Z,11.73
2023-02-12T03:40:23.871Z,11.50
2023-02-12T03:45:42.510Z,11.32
2023-02-12T03:50:59.659Z,12.20
2023-02-12T03:56:12.033Z,10.10
2023-02-12T04:01:09.779Z,12.10
2023-02-12T04:06:20.862Z,11.02
2023-02-12T04:11:30.164Z,10.68
2023-02-12T04:16:40.728Z,10.98
2023-02-12T04:22:14.647Z,11.02
2023-02-12T04:27:20.719Z,11.88
2023-02-12T04:32:41.411Z,10.90
2023-02-12T04:37:44.662Z,11.80
2023-02-12T04:42:44.399Z,12.20
2023-02-12T04:47:41.963Z,13.20
2023-02-12T04:52:39.376Z,10.63
2023-02-12T04:57:38.494Z,11.63
2023-02-12T05:02:37.080Z,11.93
2023-02-12T05:07:36.918Z,10.43
2023-02-12T05:12:34.213Z,11.98
2023-02-12T05:17:33.003Z,12.48
2023-02-12T05:22:31.541Z,10.30
2023-02-12T05:27:28.984Z,11.05
2023-02-12T05:32:26.299Z,10.43
2023-02-12T05:37:23.484Z,10.95
2023-02-12T05:42:20.869Z,11.25
2023-02-12T05:47:18.179Z,10.63
2023-02-12T05:52:15.507Z,10.15
2023-02-12T05:57:12.727Z,10.82
2023-02-12T06:02:10.113Z,10.02
2023-02-12T06:07:10.237Z,10.88
2023-02-12T06:12:07.572Z,10.95
2023-02-12T06:17:04.881Z,10.55
2023-02-12T06:22:02.260Z,10.20
2023-02-12T06:26:59.847Z,11.20
2023-02-12T06:31:57.142Z,9.65
2023-02-12T06:36:54.905Z,10.43
2023-02-12T06:41:52.305Z,10.88
2023-02-12T06:46:49.684Z,10.80
2023-02-12T06:51:47.089Z,12.48
2023-02-12T06:56:45.014Z,11.23
2023-02-12T07:01:42.367Z,15.80
2023-02-12T07:06:39.828Z,14.73
2023-02-12T07:11:38.649Z,14.18
2023-02-12T07:16:36.251Z,12.27
2023-02-12T07:21:33.913Z,18.80
2023-02-12T07:26:31.266Z,12.10
2023-02-12T07:31:28.753Z,12.43
2023-02-12T07:36:29.688Z,12.18
2023-02-12T07:41:30.262Z,12.80
2023-02-12T07:46:31.255Z,12.65
2023-02-12T07:51:28.923Z,14.50
2023-02-12T07:56:32.729Z,16.08
2023-02-12T08:01:35.729Z,25.88
2023-02-12T08:06:35.284Z,17.40
2023-02-12T08:11:33.708Z,17.48
2023-02-12T08:16:31.878Z,15.38
2023-02-12T08:21:29.507Z,13.65
2023-02-12T08:26:32.806Z,10.50
2023-02-12T08:31:33.451Z,11.10
2023-02-12T08:36:39.380Z,11.75
2023-02-12T08:41:37.575Z,11.40
2023-02-12T08:46:37.678Z,10.43
2023-02-12T08:51:36.580Z,10.52
2023-02-12T08:56:35.920Z,10.82
2023-02-12T09:01:38.600Z,14.53
2023-02-12T09:06:36.591Z,10.65
2023-02-12T09:11:35.440Z,9.98
2023-02-12T09:16:35.861Z,10.77
2023-02-12T09:21:33.991Z,11.05
2023-02-12T09:26:31.544Z,9.98
2023-02-12T09:31:31.125Z,9.85
2023-02-12T09:36:29.060Z,10.17
2023-02-12T09:41:49.924Z,8.93
2023-02-12T09:47:00.879Z,10.73
2023-02-12T09:51:59.096Z,9.88
2023-02-12T09:57:00.499Z,9.13
2023-02-12T10:01:59.095Z,9.35
2023-02-12T10:07:19.439Z,9.88
2023-02-12T10:12:39.901Z,8.88
2023-02-12T10:17:52.236Z,7.47
2023-02-12T10:23:04.214Z,7.57
2023-02-12T10:28:08.900Z,7.72
2023-02-12T10:33:16.415Z,7.95
2023-02-12T10:38:21.864Z,9.75
2023-02-12T10:43:19.238Z,10.30
2023-02-12T10:48:20.788Z,9.30
2023-02-12T10:53:29.938Z,9.07
2023-02-12T10:58:27.257Z,10.25
2023-02-12T11:03:29.886Z,9.85
2023-02-12T11:08:34.322Z,10.30
2023-02-12T11:13:32.042Z,10.18
2023-02-12T11:18:33.189Z,9.52
2023-02-12T11:23:38.000Z,10.65
2023-02-12T11:28:37.165Z,9.68
2023-02-12T11:33:36.330Z,9.75
2023-02-12T11:38:55.251Z,8.80
2023-02-12T11:43:53.211Z,7.63
2023-02-12T11:48:53.041Z,8.98
2023-02-12T11:53:53.331Z,8.57
2023-02-12T11:58:54.070Z,8.70
2023-02-12T12:04:20.612Z,9.15
2023-02-12T12:09:25.280Z,9.88
2023-02-12T12:15:03.074Z,9.63
2023-02-12T12:20:04.499Z,8.77
2023-02-12T12:25:24.684Z,9.45
2023-02-12T12:30:44.261Z,8.00
2023-02-12T12:35:53.637Z,9.07
2023-02-12T12:41:08.758Z,8.52
2023-02-12T12:46:21.787Z,7.28
2023-02-12T12:51:23.516Z,8.52
2023-02-12T12:56:26.354Z,8.35
2023-02-12T13:01:35.504Z,8.15
2023-02-12T13:06:35.461Z,7.32
2023-02-12T13:11:54.280Z,7.80
2023-02-12T13:17:00.903Z,6.75
2023-02-12T13:22:19.881Z,7.68
2023-02-12T13:27:23.029Z,7.55
2023-02-12T13:32:46.912Z,7.40
2023-02-12T13:37:51.629Z,6.90
2023-02-12T13:42:48.944Z,7.30
2023-02-12T13:48:12.432Z,7.95
2023-02-12T13:53:21.463Z,7.65
2023-02-12T13:58:35.019Z,7.93
2023-02-12T14:03:32.726Z,7.68
2023-02-12T14:09:00.768Z,7.50
2023-02-12T14:14:05.039Z,8.30
2023-02-12T14:19:36.964Z,16.70
2023-02-12T14:24:36.894Z,10.05
2023-02-12T14:29:34.238Z,8.88
2023-02-12T14:34:31.603Z,7.97
2023-02-12T14:39:30.198Z,8.90
2023-02-12T14:44:29.172Z,8.90
2023-02-12T14:49:27.541Z,7.82
2023-02-12T14:54:36.024Z,8.23
2023-02-12T14:59:40.244Z,8.65
2023-02-12T15:04:38.894Z,8.18
2023-02-12T15:09:52.486Z,9.32
2023-02-12T15:15:08.891Z,7.00
2023-02-12T15:20:16.780Z,7.30
2023-02-12T15:25:16.971Z,7.53
2023-02-12T15:30:25.962Z,7.15
2023-02-12T15:35:26.987Z,7.70
2023-02-12T15:40:24.448Z,7.40
2023-02-12T15:45:27.560Z,7.72
2023-02-12T15:50:25.574Z,8.25
2023-02-12T15:55:33.380Z,8.05
2023-02-12T16:00:30.650Z,7.28
2023-02-12T16:05:29.171Z,7.32
2023-02-12T16:10:27.375Z,9.68
2023-02-12T16:15:31.041Z,8.30
2023-02-12T16:20:30.911Z,10.15
2023-02-12T16:25:31.985Z,10.30
2023-02-12T16:30:38.920Z,10.63
2023-02-12T16:35:36.377Z,12.50
2023-02-12T16:40:35.910Z,17.02
2023-02-12T16:45:43.258Z,16.15
2023-02-12T16:50:53.390Z,13.25
2023-02-12T16:55:51.344Z,11.95
2023-02-12T17:00:52.155Z,10.98
2023-02-12T17:05:55.596Z,11.52
2023-02-12T17:10:56.096Z,10.73
2023-02-12T17:15:57.501Z,10.98
2023-02-12T17:20:58.161Z,10.15
2023-02-12T17:25:58.895Z,8.95
2023-02-12T17:31:07.297Z,9.55
2023-02-12T17:36:11.339Z,11.15
2023-02-12T17:41:22.685Z,13.35
2023-02-12T17:46:27.752Z,12.95
2023-02-12T17:51:34.195Z,11.93
2023-02-12T17:56:34.112Z,11.65
2023-02-12T18:01:37.258Z,10.50
2023-02-12T18:06:34.693Z,10.60
2023-02-12T18:11:33.171Z,9.73
2023-02-12T18:16:35.118Z,12.02
2023-02-12T18:21:45.377Z,13.52
2023-02-12T18:27:10.952Z,19.23
2023-02-12T18:32:22.142Z,33.17
2023-02-12T18:37:33.113Z,24.98
2023-02-12T18:42:33.511Z,19.73
2023-02-12T18:47:30.893Z,23.23
2023-02-12T18:52:28.492Z,23.13
2023-02-12T18:57:26.530Z,17.20
2023-02-12T19:02:39.230Z,18.67
2023-02-12T19:07:52.405Z,22.38
2023-02-12T19:13:03.152Z,29.65
2023-02-12T19:18:19.140Z,29.05
2023-02-12T19:23:17.727Z,30.98
2023-02-12T19:28:28.126Z,15.88
2023-02-12T19:33:39.434Z,23.33
2023-02-12T19:38:57.842Z,23.27
2023-02-12T19:44:01.208Z,21.85
2023-02-12T19:49:03.153Z,15.48
2023-02-12T19:54:01.947Z,20.92
2023-02-12T19:59:02.460Z,24.02
2023-02-12T20:04:00.381Z,27.33
2023-02-12T20:09:01.952Z,32.53
2023-02-12T20:14:09.587Z,23.33
2023-02-12T20:19:10.685Z,22.63
2023-02-12T20:24:08.365Z,20.75
2023-02-12T20:29:09.729Z,25.52
2023-02-12T20:34:16.954Z,15.77
2023-02-12T20:39:19.284Z,25.25
2023-02-12T20:44:21.477Z,18.38
2023-02-12T20:49:19.778Z,16.80
2023-02-12T20:54:17.050Z,16.48
2023-02-12T20:59:14.615Z,14.00
2023-02-12T21:04:15.490Z,13.25
2023-02-12T21:09:14.168Z,14.10
2023-02-12T21:14:21.852Z,12.27
2023-02-12T21:19:20.437Z,11.80
2023-02-12T21:24:52.409Z,12.65
2023-02-12T21:30:12.696Z,13.13
2023-02-12T21:35:55.077Z,10.68
2023-02-12T21:41:52.630Z,12.55
2023-02-12T21:47:33.758Z,11.10
2023-02-12T21:59:39.313Z,11.57
2023-02-12T22:05:22.332Z,9.85
2023-02-12T22:10:56.319Z,11.88
2023-02-12T22:16:34.781Z,11.27
2023-02-12T22:22:38.225Z,12.98
2023-02-12T22:28:21.212Z,12.88
2023-02-12T22:34:03.795Z,12.05
2023-02-12T22:39:52.698Z,10.60
2023-02-12T22:45:48.355Z,11.90
2023-02-12T22:51:30.406Z,13.45
2023-02-12T22:57:20.478Z,11.65
2023-02-12T23:03:06.560Z,12.27
2023-02-12T23:08:28.117Z,13.43
2023-02-12T23:13:55.310Z,12.57
2023-02-12T23:19:01.292Z,12.68
2023-02-12T23:24:02.077Z,12.60
2023-02-12T23:29:05.744Z,11.50
2023-02-12T23:34:09.053Z,12.82
2023-02-12T23:39:10.815Z,12.60
2023-02-12T23:44:20.419Z,12.75
2023-02-12T23:49:29.502Z,13.38
2023-02-12T23:54:27.211Z,11.32
2023-02-12T23:59:39.735Z,13.32
